sensor_id;sensor_type;location;lat;lon;timestamp;P1;durP1;ratioP1;P2;durP2;ratioP2
2362;SDS011;64265;51.664;7.626;2023-07-29T00:01:02;3.73;;;2.80;;
2362;SDS011;64265;51.664;7.626;2023-07-29T00:03:29;3.47;;;3.17;;
2362;SDS011;64265;51.664;7.626;2023-07-29T00:05:57;4.53;;;3.87;;
2362;SDS011;64265;51.664;7.626;2023-07-29T00:08:23;3.20;;;2.70;;
2362;SDS011;64265;51.664;7.626;2023-07-29T00:10:50;3.53;;;3.23;;
2362;SDS011;64265;51.664;7.626;2023-07-29T00:13:18;3.60;;;3.17;;
2362;SDS011;64265;51.664;7.626;2023-07-29T00:15:45;4.33;;;3.07;;
2362;SDS011;64265;51.664;7.626;2023-07-29T00:18:11;4.30;;;3.30;;
2362;SDS011;64265;51.664;7.626;2023-07-29T00:20:38;3.83;;;3.43;;
2362;SDS011;64265;51.664;7.626;2023-07-29T00:23:05;3.90;;;3.10;;
2362;SDS011;64265;51.664;7.626;2023-07-29T00:25:32;3.30;;;3.00;;
2362;SDS011;64265;51.664;7.626;2023-07-29T00:27:58;4.23;;;3.30;;
2362;SDS011;64265;51.664;7.626;2023-07-29T00:30:26;3.30;;;3.00;;
2362;SDS011;64265;51.664;7.626;2023-07-29T00:32:53;3.53;;;2.97;;
2362;SDS011;64265;51.664;7.626;2023-07-29T00:35:20;3.67;;;3.07;;
2362;SDS011;64265;51.664;7.626;2023-07-29T00:37:46;5.10;;;3.17;;
2362;SDS011;64265;51.664;7.626;2023-07-29T00:40:14;3.37;;;3.07;;
2362;SDS011;64265;51.664;7.626;2023-07-29T00:42:45;3.50;;;3.10;;
2362;SDS011;64265;51.664;7.626;2023-07-29T00:45:12;3.60;;;2.77;;
2362;SDS011;64265;51.664;7.626;2023-07-29T00:47:40;3.10;;;2.80;;
2362;SDS011;64265;51.664;7.626;2023-07-29T00:50:08;3.17;;;2.87;;
2362;SDS011;64265;51.664;7.626;2023-07-29T00:52:37;3.33;;;2.67;;
2362;SDS011;64265;51.664;7.626;2023-07-29T00:55:04;3.23;;;2.40;;
2362;SDS011;64265;51.664;7.626;2023-07-29T00:57:31;2.97;;;2.63;;
2362;SDS011;64265;51.664;7.626;2023-07-29T00:59:58;4.00;;;2.60;;
2362;SDS011;64265;51.664;7.626;2023-07-29T01:02:26;4.03;;;3.10;;
2362;SDS011;64265;51.664;7.626;2023-07-29T01:04:56;3.30;;;2.90;;
2362;SDS011;64265;51.664;7.626;2023-07-29T01:07:26;3.53;;;3.07;;
2362;SDS011;64265;51.664;7.626;2023-07-29T01:10:00;3.57;;;3.27;;
2362;SDS011;64265;51.664;7.626;2023-07-29T01:12:31;4.93;;;2.80;;
2362;SDS011;64265;51.664;7.626;2023-07-29T01:15:04;4.00;;;3.20;;
2362;SDS011;64265;51.664;7.626;2023-07-29T01:17:38;3.47;;;3.00;;
2362;SDS011;64265;51.664;7.626;2023-07-29T01:20:11;2.77;;;2.47;;
2362;SDS011;64265;51.664;7.626;2023-07-29T01:22:40;2.97;;;2.57;;
2362;SDS011;64265;51.664;7.626;2023-07-29T01:25:09;3.43;;;3.00;;
2362;SDS011;64265;51.664;7.626;2023-07-29T01:27:36;3.37;;;2.70;;
2362;SDS011;64265;51.664;7.626;2023-07-29T01:30:03;3.40;;;2.93;;
2362;SDS011;64265;51.664;7.626;2023-07-29T01:32:32;2.93;;;2.73;;
2362;SDS011;64265;51.664;7.626;2023-07-29T01:35:05;2.67;;;2.47;;
2362;SDS011;64265;51.664;7.626;2023-07-29T01:37:41;3.13;;;2.33;;
2362;SDS011;64265;51.664;7.626;2023-07-29T01:40:11;2.90;;;2.70;;
2362;SDS011;64265;51.664;7.626;2023-07-29T01:42:39;2.40;;;2.20;;
2362;SDS011;64265;51.664;7.626;2023-07-29T01:45:06;4.27;;;2.90;;
2362;SDS011;64265;51.664;7.626;2023-07-29T01:47:33;3.80;;;3.13;;
2362;SDS011;64265;51.664;7.626;2023-07-29T01:49:59;2.53;;;2.33;;
2362;SDS011;64265;51.664;7.626;2023-07-29T01:52:26;3.20;;;2.70;;
2362;SDS011;64265;51.664;7.626;2023-07-29T01:54:53;2.67;;;2.27;;
2362;SDS011;64265;51.664;7.626;2023-07-29T01:57:21;2.90;;;2.60;;
2362;SDS011;64265;51.664;7.626;2023-07-29T01:59:48;5.30;;;2.83;;
2362;SDS011;64265;51.664;7.626;2023-07-29T02:02:14;2.70;;;2.50;;
2362;SDS011;64265;51.664;7.626;2023-07-29T02:04:41;3.50;;;3.07;;
2362;SDS011;64265;51.664;7.626;2023-07-29T02:07:08;3.23;;;2.93;;
2362;SDS011;64265;51.664;7.626;2023-07-29T02:09:34;2.73;;;2.53;;
2362;SDS011;64265;51.664;7.626;2023-07-29T02:12:01;2.30;;;2.10;;
2362;SDS011;64265;51.664;7.626;2023-07-29T02:14:30;3.10;;;2.80;;
2362;SDS011;64265;51.664;7.626;2023-07-29T02:16:56;2.83;;;2.63;;
2362;SDS011;64265;51.664;7.626;2023-07-29T02:19:23;3.13;;;2.93;;
2362;SDS011;64265;51.664;7.626;2023-07-29T02:21:50;3.00;;;2.80;;
2362;SDS011;64265;51.664;7.626;2023-07-29T02:24:16;2.67;;;2.47;;
2362;SDS011;64265;51.664;7.626;2023-07-29T02:26:43;2.43;;;2.23;;
2362;SDS011;64265;51.664;7.626;2023-07-29T02:29:10;2.93;;;2.73;;
2362;SDS011;64265;51.664;7.626;2023-07-29T02:31:38;3.10;;;2.80;;
2362;SDS011;64265;51.664;7.626;2023-07-29T02:34:05;2.73;;;2.43;;
2362;SDS011;64265;51.664;7.626;2023-07-29T02:36:31;2.93;;;2.63;;
2362;SDS011;64265;51.664;7.626;2023-07-29T02:38:58;2.70;;;2.03;;
2362;SDS011;64265;51.664;7.626;2023-07-29T02:41:25;2.93;;;2.70;;
2362;SDS011;64265;51.664;7.626;2023-07-29T02:43:51;2.40;;;2.20;;
2362;SDS011;64265;51.664;7.626;2023-07-29T02:46:18;2.70;;;2.40;;
2362;SDS011;64265;51.664;7.626;2023-07-29T02:48:46;2.30;;;2.10;;
2362;SDS011;64265;51.664;7.626;2023-07-29T02:51:13;2.40;;;2.20;;
2362;SDS011;64265;51.664;7.626;2023-07-29T02:53:39;2.87;;;2.67;;
2362;SDS011;64265;51.664;7.626;2023-07-29T02:56:06;3.10;;;2.73;;
2362;SDS011;64265;51.664;7.626;2023-07-29T02:58:34;3.17;;;2.40;;
2362;SDS011;64265;51.664;7.626;2023-07-29T03:01:01;3.33;;;3.03;;
2362;SDS011;64265;51.664;7.626;2023-07-29T03:03:28;2.43;;;2.23;;
2362;SDS011;64265;51.664;7.626;2023-07-29T03:05:58;2.70;;;2.30;;
2362;SDS011;64265;51.664;7.626;2023-07-29T03:08:26;4.20;;;2.73;;
2362;SDS011;64265;51.664;7.626;2023-07-29T03:10:53;3.17;;;2.87;;
2362;SDS011;64265;51.664;7.626;2023-07-29T03:13:20;2.47;;;2.27;;
2362;SDS011;64265;51.664;7.626;2023-07-29T03:15:47;2.30;;;2.10;;
2362;SDS011;64265;51.664;7.626;2023-07-29T03:18:13;3.27;;;2.97;;
2362;SDS011;64265;51.664;7.626;2023-07-29T03:20:40;2.10;;;2.00;;
2362;SDS011;64265;51.664;7.626;2023-07-29T03:23:08;2.00;;;1.80;;
2362;SDS011;64265;51.664;7.626;2023-07-29T03:25:35;3.37;;;2.73;;
2362;SDS011;64265;51.664;7.626;2023-07-29T03:28:02;2.57;;;2.37;;
2362;SDS011;64265;51.664;7.626;2023-07-29T03:30:29;3.67;;;2.87;;
2362;SDS011;64265;51.664;7.626;2023-07-29T03:32:56;3.43;;;2.77;;
2362;SDS011;64265;51.664;7.626;2023-07-29T03:35:22;3.50;;;2.70;;
2362;SDS011;64265;51.664;7.626;2023-07-29T03:37:49;2.40;;;2.20;;
2362;SDS011;64265;51.664;7.626;2023-07-29T03:40:17;2.30;;;2.10;;
2362;SDS011;64265;51.664;7.626;2023-07-29T03:42:44;2.43;;;2.20;;
2362;SDS011;64265;51.664;7.626;2023-07-29T03:45:11;2.60;;;2.40;;
2362;SDS011;64265;51.664;7.626;2023-07-29T03:47:38;3.33;;;2.30;;
2362;SDS011;64265;51.664;7.626;2023-07-29T03:50:05;2.77;;;2.57;;
2362;SDS011;64265;51.664;7.626;2023-07-29T03:52:32;2.77;;;2.57;;
2362;SDS011;64265;51.664;7.626;2023-07-29T03:54:59;2.67;;;2.47;;
2362;SDS011;64265;51.664;7.626;2023-07-29T03:57:27;3.10;;;2.80;;
2362;SDS011;64265;51.664;7.626;2023-07-29T03:59:54;3.00;;;2.50;;
2362;SDS011;64265;51.664;7.626;2023-07-29T04:02:21;2.70;;;2.10;;
2362;SDS011;64265;51.664;7.626;2023-07-29T04:04:48;2.67;;;2.47;;
2362;SDS011;64265;51.664;7.626;2023-07-29T04:07:14;2.43;;;2.13;;
2362;SDS011;64265;51.664;7.626;2023-07-29T04:09:41;2.27;;;2.07;;
2362;SDS011;64265;51.664;7.626;2023-07-29T04:12:09;2.10;;;1.90;;
2362;SDS011;64265;51.664;7.626;2023-07-29T04:14:37;1.90;;;1.80;;
2362;SDS011;64265;51.664;7.626;2023-07-29T04:17:04;2.90;;;2.50;;
2362;SDS011;64265;51.664;7.626;2023-07-29T04:19:31;2.07;;;1.90;;
2362;SDS011;64265;51.664;7.626;2023-07-29T04:21:57;3.10;;;2.90;;
2362;SDS011;64265;51.664;7.626;2023-07-29T04:24:24;2.57;;;2.37;;
2362;SDS011;64265;51.664;7.626;2023-07-29T04:26:51;1.77;;;1.57;;
2362;SDS011;64265;51.664;7.626;2023-07-29T04:29:18;2.17;;;1.90;;
2362;SDS011;64265;51.664;7.626;2023-07-29T04:31:46;2.33;;;2.13;;
2362;SDS011;64265;51.664;7.626;2023-07-29T04:34:12;2.20;;;2.00;;
2362;SDS011;64265;51.664;7.626;2023-07-29T04:36:39;2.17;;;1.97;;
2362;SDS011;64265;51.664;7.626;2023-07-29T04:39:06;2.43;;;2.07;;
2362;SDS011;64265;51.664;7.626;2023-07-29T04:41:33;2.40;;;1.93;;
2362;SDS011;64265;51.664;7.626;2023-07-29T04:43:59;1.87;;;1.77;;
2362;SDS011;64265;51.664;7.626;2023-07-29T04:46:26;1.70;;;1.60;;
2362;SDS011;64265;51.664;7.626;2023-07-29T04:48:55;2.47;;;2.27;;
2362;SDS011;64265;51.664;7.626;2023-07-29T04:51:21;2.10;;;1.90;;
2362;SDS011;64265;51.664;7.626;2023-07-29T04:53:49;2.40;;;2.20;;
2362;SDS011;64265;51.664;7.626;2023-07-29T04:56:16;2.23;;;1.93;;
2362;SDS011;64265;51.664;7.626;2023-07-29T04:58:42;1.93;;;1.53;;
2362;SDS011;64265;51.664;7.626;2023-07-29T05:01:09;2.03;;;1.83;;
2362;SDS011;64265;51.664;7.626;2023-07-29T05:03:36;2.40;;;2.20;;
2362;SDS011;64265;51.664;7.626;2023-07-29T05:06:06;2.30;;;2.10;;
2362;SDS011;64265;51.664;7.626;2023-07-29T05:08:32;2.60;;;2.37;;
2362;SDS011;64265;51.664;7.626;2023-07-29T05:10:59;2.00;;;1.73;;
2362;SDS011;64265;51.664;7.626;2023-07-29T05:13:26;2.17;;;1.97;;
2362;SDS011;64265;51.664;7.626;2023-07-29T05:15:53;2.13;;;2.03;;
2362;SDS011;64265;51.664;7.626;2023-07-29T05:18:20;2.10;;;1.90;;
2362;SDS011;64265;51.664;7.626;2023-07-29T05:20:47;1.83;;;1.73;;
2362;SDS011;64265;51.664;7.626;2023-07-29T05:23:15;3.47;;;2.30;;
2362;SDS011;64265;51.664;7.626;2023-07-29T05:25:41;1.93;;;1.83;;
2362;SDS011;64265;51.664;7.626;2023-07-29T05:28:08;2.20;;;1.90;;
2362;SDS011;64265;51.664;7.626;2023-07-29T05:30:35;2.00;;;1.80;;
2362;SDS011;64265;51.664;7.626;2023-07-29T05:33:04;2.23;;;1.90;;
2362;SDS011;64265;51.664;7.626;2023-07-29T05:35:32;1.90;;;1.80;;
2362;SDS011;64265;51.664;7.626;2023-07-29T05:37:59;1.83;;;1.73;;
2362;SDS011;64265;51.664;7.626;2023-07-29T05:40:27;1.87;;;1.77;;
2362;SDS011;64265;51.664;7.626;2023-07-29T05:42:54;2.43;;;2.23;;
2362;SDS011;64265;51.664;7.626;2023-07-29T05:45:21;2.07;;;1.90;;
2362;SDS011;64265;51.664;7.626;2023-07-29T05:47:47;2.70;;;2.03;;
2362;SDS011;64265;51.664;7.626;2023-07-29T05:50:14;2.30;;;1.77;;
2362;SDS011;64265;51.664;7.626;2023-07-29T05:52:41;1.80;;;1.70;;
2362;SDS011;64265;51.664;7.626;2023-07-29T05:55:08;2.33;;;2.13;;
2362;SDS011;64265;51.664;7.626;2023-07-29T05:57:36;2.23;;;2.03;;
2362;SDS011;64265;51.664;7.626;2023-07-29T06:00:03;1.63;;;1.53;;
2362;SDS011;64265;51.664;7.626;2023-07-29T06:02:31;1.63;;;1.37;;
2362;SDS011;64265;51.664;7.626;2023-07-29T06:04:58;1.80;;;1.70;;
2362;SDS011;64265;51.664;7.626;2023-07-29T06:07:25;1.40;;;1.20;;
2362;SDS011;64265;51.664;7.626;2023-07-29T06:09:54;2.00;;;1.80;;
2362;SDS011;64265;51.664;7.626;2023-07-29T06:12:22;1.60;;;1.50;;
2362;SDS011;64265;51.664;7.626;2023-07-29T06:14:50;2.10;;;2.00;;
2362;SDS011;64265;51.664;7.626;2023-07-29T06:17:17;2.40;;;2.20;;
2362;SDS011;64265;51.664;7.626;2023-07-29T06:19:44;2.47;;;2.27;;
2362;SDS011;64265;51.664;7.626;2023-07-29T06:22:10;2.23;;;2.03;;
2362;SDS011;64265;51.664;7.626;2023-07-29T06:24:37;2.27;;;2.07;;
2362;SDS011;64265;51.664;7.626;2023-07-29T06:27:04;1.70;;;1.50;;
2362;SDS011;64265;51.664;7.626;2023-07-29T06:29:31;2.57;;;1.50;;
2362;SDS011;64265;51.664;7.626;2023-07-29T06:31:59;2.20;;;1.97;;
2362;SDS011;64265;51.664;7.626;2023-07-29T06:34:26;2.20;;;2.00;;
2362;SDS011;64265;51.664;7.626;2023-07-29T06:36:53;1.60;;;1.50;;
2362;SDS011;64265;51.664;7.626;2023-07-29T06:39:19;1.97;;;1.70;;
2362;SDS011;64265;51.664;7.626;2023-07-29T06:41:46;2.70;;;1.87;;
2362;SDS011;64265;51.664;7.626;2023-07-29T06:44:13;2.30;;;1.90;;
2362;SDS011;64265;51.664;7.626;2023-07-29T06:46:39;2.27;;;1.50;;
2362;SDS011;64265;51.664;7.626;2023-07-29T06:49:08;2.20;;;2.00;;
2362;SDS011;64265;51.664;7.626;2023-07-29T06:51:35;1.93;;;1.77;;
2362;SDS011;64265;51.664;7.626;2023-07-29T06:54:01;1.53;;;1.43;;
2362;SDS011;64265;51.664;7.626;2023-07-29T06:56:28;1.63;;;1.53;;
2362;SDS011;64265;51.664;7.626;2023-07-29T06:58:55;2.10;;;1.90;;
2362;SDS011;64265;51.664;7.626;2023-07-29T07:01:22;2.50;;;2.13;;
2362;SDS011;64265;51.664;7.626;2023-07-29T07:03:49;1.73;;;1.63;;
2362;SDS011;64265;51.664;7.626;2023-07-29T07:06:20;1.77;;;1.67;;
2362;SDS011;64265;51.664;7.626;2023-07-29T07:08:49;2.00;;;1.80;;
2362;SDS011;64265;51.664;7.626;2023-07-29T07:11:16;2.10;;;1.80;;
2362;SDS011;64265;51.664;7.626;2023-07-29T07:13:44;2.10;;;1.87;;
2362;SDS011;64265;51.664;7.626;2023-07-29T07:16:10;1.70;;;1.43;;
2362;SDS011;64265;51.664;7.626;2023-07-29T07:18:37;1.47;;;1.37;;
2362;SDS011;64265;51.664;7.626;2023-07-29T07:21:04;3.47;;;1.77;;
2362;SDS011;64265;51.664;7.626;2023-07-29T07:23:32;1.63;;;1.53;;
2362;SDS011;64265;51.664;7.626;2023-07-29T07:25:58;2.20;;;1.70;;
2362;SDS011;64265;51.664;7.626;2023-07-29T07:28:25;2.03;;;1.70;;
2362;SDS011;64265;51.664;7.626;2023-07-29T07:30:52;1.90;;;1.70;;
2362;SDS011;64265;51.664;7.626;2023-07-29T07:33:20;1.80;;;1.70;;
2362;SDS011;64265;51.664;7.626;2023-07-29T07:35:47;2.10;;;1.90;;
2362;SDS011;64265;51.664;7.626;2023-07-29T07:38:14;1.50;;;1.40;;
2362;SDS011;64265;51.664;7.626;2023-07-29T07:40:42;1.93;;;1.73;;
2362;SDS011;64265;51.664;7.626;2023-07-29T07:43:09;1.53;;;1.43;;
2362;SDS011;64265;51.664;7.626;2023-07-29T07:45:35;1.83;;;1.60;;
2362;SDS011;64265;51.664;7.626;2023-07-29T07:48:02;2.13;;;1.93;;
2362;SDS011;64265;51.664;7.626;2023-07-29T07:50:29;1.90;;;1.70;;
2362;SDS011;64265;51.664;7.626;2023-07-29T07:52:57;2.00;;;1.87;;
2362;SDS011;64265;51.664;7.626;2023-07-29T07:55:24;1.60;;;1.50;;
2362;SDS011;64265;51.664;7.626;2023-07-29T07:57:52;1.93;;;1.70;;
2362;SDS011;64265;51.664;7.626;2023-07-29T08:00:19;1.90;;;1.70;;
2362;SDS011;64265;51.664;7.626;2023-07-29T08:02:46;2.07;;;1.87;;
2362;SDS011;64265;51.664;7.626;2023-07-29T08:05:13;1.60;;;1.43;;
2362;SDS011;64265;51.664;7.626;2023-07-29T08:07:40;2.80;;;1.57;;
2362;SDS011;64265;51.664;7.626;2023-07-29T08:10:07;1.90;;;1.70;;
2362;SDS011;64265;51.664;7.626;2023-07-29T08:12:34;1.50;;;1.33;;
2362;SDS011;64265;51.664;7.626;2023-07-29T08:15:02;2.43;;;2.03;;
2362;SDS011;64265;51.664;7.626;2023-07-29T08:17:29;2.20;;;1.83;;
2362;SDS011;64265;51.664;7.626;2023-07-29T08:19:56;1.63;;;1.53;;
2362;SDS011;64265;51.664;7.626;2023-07-29T08:22:23;2.00;;;1.67;;
2362;SDS011;64265;51.664;7.626;2023-07-29T08:24:49;1.80;;;1.63;;
2362;SDS011;64265;51.664;7.626;2023-07-29T08:27:17;2.00;;;1.83;;
2362;SDS011;64265;51.664;7.626;2023-07-29T08:29:44;2.63;;;2.43;;
2362;SDS011;64265;51.664;7.626;2023-07-29T08:32:12;1.90;;;1.70;;
2362;SDS011;64265;51.664;7.626;2023-07-29T08:34:39;2.13;;;1.93;;
2362;SDS011;64265;51.664;7.626;2023-07-29T08:37:06;1.73;;;1.33;;
2362;SDS011;64265;51.664;7.626;2023-07-29T08:39:32;2.00;;;1.77;;
2362;SDS011;64265;51.664;7.626;2023-07-29T08:42:00;2.37;;;1.53;;
2362;SDS011;64265;51.664;7.626;2023-07-29T08:44:31;1.77;;;1.60;;
2362;SDS011;64265;51.664;7.626;2023-07-29T08:47:01;1.50;;;1.33;;
2362;SDS011;64265;51.664;7.626;2023-07-29T08:49:30;1.70;;;1.53;;
2362;SDS011;64265;51.664;7.626;2023-07-29T08:51:58;1.80;;;1.67;;
2362;SDS011;64265;51.664;7.626;2023-07-29T08:54:25;2.07;;;1.60;;
2362;SDS011;64265;51.664;7.626;2023-07-29T08:56:52;1.67;;;1.50;;
2362;SDS011;64265;51.664;7.626;2023-07-29T08:59:19;4.90;;;1.80;;
2362;SDS011;64265;51.664;7.626;2023-07-29T09:01:46;2.23;;;1.90;;
2362;SDS011;64265;51.664;7.626;2023-07-29T09:04:14;1.90;;;1.57;;
2362;SDS011;64265;51.664;7.626;2023-07-29T09:06:42;2.57;;;1.70;;
2362;SDS011;64265;51.664;7.626;2023-07-29T09:09:10;2.43;;;1.63;;
2362;SDS011;64265;51.664;7.626;2023-07-29T09:11:37;3.20;;;1.87;;
2362;SDS011;64265;51.664;7.626;2023-07-29T09:14:04;1.60;;;1.50;;
2362;SDS011;64265;51.664;7.626;2023-07-29T09:16:30;2.80;;;1.97;;
2362;SDS011;64265;51.664;7.626;2023-07-29T09:19:00;1.97;;;1.87;;
2362;SDS011;64265;51.664;7.626;2023-07-29T09:21:28;2.40;;;1.97;;
2362;SDS011;64265;51.664;7.626;2023-07-29T09:23:57;3.33;;;2.10;;
2362;SDS011;64265;51.664;7.626;2023-07-29T09:26:29;3.70;;;1.60;;
2362;SDS011;64265;51.664;7.626;2023-07-29T09:28:57;3.23;;;1.90;;
2362;SDS011;64265;51.664;7.626;2023-07-29T09:31:25;1.70;;;1.47;;
2362;SDS011;64265;51.664;7.626;2023-07-29T09:33:55;2.20;;;1.93;;
2362;SDS011;64265;51.664;7.626;2023-07-29T09:36:23;2.10;;;1.90;;
2362;SDS011;64265;51.664;7.626;2023-07-29T09:38:52;2.40;;;1.97;;
2362;SDS011;64265;51.664;7.626;2023-07-29T09:41:22;1.63;;;1.50;;
2362;SDS011;64265;51.664;7.626;2023-07-29T09:43:54;1.80;;;1.50;;
2362;SDS011;64265;51.664;7.626;2023-07-29T09:46:23;1.77;;;1.60;;
2362;SDS011;64265;51.664;7.626;2023-07-29T09:48:52;2.23;;;1.70;;
2362;SDS011;64265;51.664;7.626;2023-07-29T09:51:20;1.70;;;1.43;;
2362;SDS011;64265;51.664;7.626;2023-07-29T09:53:47;1.80;;;1.63;;
2362;SDS011;64265;51.664;7.626;2023-07-29T09:56:16;1.97;;;1.80;;
2362;SDS011;64265;51.664;7.626;2023-07-29T09:58:45;2.90;;;1.80;;
2362;SDS011;64265;51.664;7.626;2023-07-29T10:01:12;1.90;;;1.80;;
2362;SDS011;64265;51.664;7.626;2023-07-29T10:03:39;2.13;;;1.57;;
2362;SDS011;64265;51.664;7.626;2023-07-29T10:06:07;1.67;;;1.43;;
2362;SDS011;64265;51.664;7.626;2023-07-29T10:08:33;1.70;;;1.40;;
2362;SDS011;64265;51.664;7.626;2023-07-29T10:11:03;1.70;;;1.40;;
2362;SDS011;64265;51.664;7.626;2023-07-29T10:13:32;1.20;;;1.10;;
2362;SDS011;64265;51.664;7.626;2023-07-29T10:16:00;2.00;;;1.80;;
2362;SDS011;64265;51.664;7.626;2023-07-29T10:18:28;1.40;;;1.27;;
2362;SDS011;64265;51.664;7.626;2023-07-29T10:20:56;2.40;;;1.40;;
2362;SDS011;64265;51.664;7.626;2023-07-29T10:23:24;2.20;;;1.90;;
2362;SDS011;64265;51.664;7.626;2023-07-29T10:25:54;2.03;;;1.83;;
2362;SDS011;64265;51.664;7.626;2023-07-29T10:28:25;2.17;;;1.30;;
2362;SDS011;64265;51.664;7.626;2023-07-29T10:30:55;1.73;;;1.63;;
2362;SDS011;64265;51.664;7.626;2023-07-29T10:33:24;1.60;;;1.20;;
2362;SDS011;64265;51.664;7.626;2023-07-29T10:35:51;1.87;;;1.53;;
2362;SDS011;64265;51.664;7.626;2023-07-29T10:38:20;2.57;;;1.70;;
2362;SDS011;64265;51.664;7.626;2023-07-29T10:40:50;2.20;;;2.00;;
2362;SDS011;64265;51.664;7.626;2023-07-29T10:43:18;5.20;;;1.70;;
2362;SDS011;64265;51.664;7.626;2023-07-29T10:45:51;1.50;;;1.40;;
2362;SDS011;64265;51.664;7.626;2023-07-29T10:51:21;1.87;;;1.50;;
2362;SDS011;64265;51.664;7.626;2023-07-29T10:53:51;1.67;;;1.57;;
2362;SDS011;64265;51.664;7.626;2023-07-29T10:56:24;2.10;;;1.90;;
2362;SDS011;64265;51.664;7.626;2023-07-29T10:58:55;2.13;;;1.73;;
2362;SDS011;64265;51.664;7.626;2023-07-29T11:01:27;1.67;;;1.53;;
2362;SDS011;64265;51.664;7.626;2023-07-29T11:04:02;1.40;;;1.20;;
2362;SDS011;64265;51.664;7.626;2023-07-29T11:07:01;1.40;;;1.30;;
2362;SDS011;64265;51.664;7.626;2023-07-29T11:09:51;1.80;;;1.17;;
2362;SDS011;64265;51.664;7.626;2023-07-29T11:12:35;1.53;;;1.37;;
2362;SDS011;64265;51.664;7.626;2023-07-29T11:15:16;2.10;;;1.70;;
2362;SDS011;64265;51.664;7.626;2023-07-29T11:17:44;2.10;;;1.80;;
2362;SDS011;64265;51.664;7.626;2023-07-29T11:20:14;1.57;;;1.47;;
2362;SDS011;64265;51.664;7.626;2023-07-29T11:22:42;1.97;;;1.87;;
2362;SDS011;64265;51.664;7.626;2023-07-29T11:25:09;1.30;;;1.13;;
2362;SDS011;64265;51.664;7.626;2023-07-29T11:27:37;2.63;;;1.70;;
2362;SDS011;64265;51.664;7.626;2023-07-29T11:30:05;1.83;;;1.60;;
2362;SDS011;64265;51.664;7.626;2023-07-29T11:32:34;1.50;;;1.40;;
2362;SDS011;64265;51.664;7.626;2023-07-29T11:35:02;3.73;;;1.50;;
2362;SDS011;64265;51.664;7.626;2023-07-29T11:37:32;1.70;;;1.60;;
2362;SDS011;64265;51.664;7.626;2023-07-29T11:39:59;1.60;;;1.50;;
2362;SDS011;64265;51.664;7.626;2023-07-29T11:42:27;2.13;;;1.70;;
2362;SDS011;64265;51.664;7.626;2023-07-29T11:44:57;1.77;;;1.67;;
2362;SDS011;64265;51.664;7.626;2023-07-29T11:47:24;1.63;;;1.33;;
2362;SDS011;64265;51.664;7.626;2023-07-29T11:49:51;1.60;;;1.40;;
2362;SDS011;64265;51.664;7.626;2023-07-29T11:52:18;3.20;;;1.47;;
2362;SDS011;64265;51.664;7.626;2023-07-29T11:54:48;1.40;;;1.30;;
2362;SDS011;64265;51.664;7.626;2023-07-29T11:57:16;1.80;;;1.70;;
2362;SDS011;64265;51.664;7.626;2023-07-29T11:59:44;1.60;;;1.50;;
2362;SDS011;64265;51.664;7.626;2023-07-29T12:02:12;1.50;;;1.40;;
2362;SDS011;64265;51.664;7.626;2023-07-29T12:04:43;1.67;;;1.57;;
2362;SDS011;64265;51.664;7.626;2023-07-29T12:07:12;1.43;;;1.33;;
2362;SDS011;64265;51.664;7.626;2023-07-29T12:09:40;2.90;;;1.53;;
2362;SDS011;64265;51.664;7.626;2023-07-29T12:12:09;1.87;;;1.47;;
2362;SDS011;64265;51.664;7.626;2023-07-29T12:14:36;2.60;;;1.43;;
2362;SDS011;64265;51.664;7.626;2023-07-29T12:17:03;1.87;;;1.50;;
2362;SDS011;64265;51.664;7.626;2023-07-29T12:19:32;1.60;;;1.30;;
2362;SDS011;64265;51.664;7.626;2023-07-29T12:22:00;1.80;;;1.37;;
2362;SDS011;64265;51.664;7.626;2023-07-29T12:24:27;2.60;;;1.53;;
2362;SDS011;64265;51.664;7.626;2023-07-29T12:26:55;1.90;;;1.73;;
2362;SDS011;64265;51.664;7.626;2023-07-29T12:29:23;2.13;;;2.00;;
2362;SDS011;64265;51.664;7.626;2023-07-29T12:31:56;1.90;;;1.70;;
2362;SDS011;64265;51.664;7.626;2023-07-29T12:34:25;2.80;;;1.77;;
2362;SDS011;64265;51.664;7.626;2023-07-29T12:36:53;2.00;;;1.80;;
2362;SDS011;64265;51.664;7.626;2023-07-29T12:39:21;2.03;;;1.83;;
2362;SDS011;64265;51.664;7.626;2023-07-29T12:41:49;1.83;;;1.73;;
2362;SDS011;64265;51.664;7.626;2023-07-29T12:44:16;1.53;;;1.43;;
2362;SDS011;64265;51.664;7.626;2023-07-29T12:46:45;2.57;;;1.70;;
2362;SDS011;64265;51.664;7.626;2023-07-29T12:49:11;2.40;;;2.20;;
2362;SDS011;64265;51.664;7.626;2023-07-29T12:51:38;2.07;;;1.87;;
2362;SDS011;64265;51.664;7.626;2023-07-29T12:54:05;1.40;;;1.30;;
2362;SDS011;64265;51.664;7.626;2023-07-29T12:56:32;2.43;;;1.50;;
2362;SDS011;64265;51.664;7.626;2023-07-29T12:58:59;1.67;;;1.57;;
2362;SDS011;64265;51.664;7.626;2023-07-29T13:01:27;2.20;;;2.00;;
2362;SDS011;64265;51.664;7.626;2023-07-29T13:03:55;3.70;;;2.00;;
2362;SDS011;64265;51.664;7.626;2023-07-29T13:06:22;1.60;;;1.50;;
2362;SDS011;64265;51.664;7.626;2023-07-29T13:08:49;2.20;;;1.80;;
2362;SDS011;64265;51.664;7.626;2023-07-29T13:11:16;1.53;;;1.43;;
2362;SDS011;64265;51.664;7.626;2023-07-29T13:13:43;1.70;;;1.60;;
2362;SDS011;64265;51.664;7.626;2023-07-29T13:16:10;2.40;;;1.83;;
2362;SDS011;64265;51.664;7.626;2023-07-29T13:18:37;1.60;;;1.50;;
2362;SDS011;64265;51.664;7.626;2023-07-29T13:21:05;2.27;;;1.47;;
2362;SDS011;64265;51.664;7.626;2023-07-29T13:23:32;2.53;;;2.03;;
2362;SDS011;64265;51.664;7.626;2023-07-29T13:25:59;2.73;;;2.00;;
2362;SDS011;64265;51.664;7.626;2023-07-29T13:28:26;1.83;;;1.70;;
2362;SDS011;64265;51.664;7.626;2023-07-29T13:30:52;2.03;;;1.57;;
2362;SDS011;64265;51.664;7.626;2023-07-29T13:33:19;2.33;;;2.03;;
2362;SDS011;64265;51.664;7.626;2023-07-29T13:35:46;2.43;;;1.40;;
2362;SDS011;64265;51.664;7.626;2023-07-29T13:38:14;2.03;;;1.63;;
2362;SDS011;64265;51.664;7.626;2023-07-29T13:40:41;2.17;;;1.50;;
2362;SDS011;64265;51.664;7.626;2023-07-29T13:43:08;1.50;;;1.33;;
2362;SDS011;64265;51.664;7.626;2023-07-29T13:45:34;1.60;;;1.50;;
2362;SDS011;64265;51.664;7.626;2023-07-29T13:48:01;1.60;;;1.50;;
2362;SDS011;64265;51.664;7.626;2023-07-29T13:50:28;1.50;;;1.30;;
2362;SDS011;64265;51.664;7.626;2023-07-29T13:52:55;3.03;;;1.60;;
2362;SDS011;64265;51.664;7.626;2023-07-29T13:55:23;2.60;;;1.83;;
2362;SDS011;64265;51.664;7.626;2023-07-29T13:57:50;1.70;;;1.60;;
2362;SDS011;64265;51.664;7.626;2023-07-29T14:00:16;1.80;;;1.70;;
2362;SDS011;64265;51.664;7.626;2023-07-29T14:02:43;1.83;;;1.60;;
2362;SDS011;64265;51.664;7.626;2023-07-29T14:05:10;2.33;;;1.80;;
2362;SDS011;64265;51.664;7.626;2023-07-29T14:07:37;3.27;;;2.17;;
2362;SDS011;64265;51.664;7.626;2023-07-29T14:10:04;2.03;;;1.57;;
2362;SDS011;64265;51.664;7.626;2023-07-29T14:12:33;2.67;;;1.70;;
2362;SDS011;64265;51.664;7.626;2023-07-29T14:15:00;2.17;;;1.97;;
2362;SDS011;64265;51.664;7.626;2023-07-29T14:17:27;1.77;;;1.60;;
2362;SDS011;64265;51.664;7.626;2023-07-29T14:19:53;1.67;;;1.57;;
2362;SDS011;64265;51.664;7.626;2023-07-29T14:22:20;2.63;;;1.50;;
2362;SDS011;64265;51.664;7.626;2023-07-29T14:24:47;2.20;;;2.00;;
2362;SDS011;64265;51.664;7.626;2023-07-29T14:27:14;2.37;;;2.10;;
2362;SDS011;64265;51.664;7.626;2023-07-29T14:29:43;3.10;;;2.20;;
2362;SDS011;64265;51.664;7.626;2023-07-29T14:32:10;2.90;;;2.13;;
2362;SDS011;64265;51.664;7.626;2023-07-29T14:34:36;2.13;;;1.70;;
2362;SDS011;64265;51.664;7.626;2023-07-29T14:37:03;1.60;;;1.50;;
2362;SDS011;64265;51.664;7.626;2023-07-29T14:39:31;1.90;;;1.70;;
2362;SDS011;64265;51.664;7.626;2023-07-29T14:41:58;1.53;;;1.43;;
2362;SDS011;64265;51.664;7.626;2023-07-29T14:44:24;2.40;;;1.70;;
2362;SDS011;64265;51.664;7.626;2023-07-29T14:46:53;2.33;;;2.13;;
2362;SDS011;64265;51.664;7.626;2023-07-29T14:49:20;2.83;;;1.70;;
2362;SDS011;64265;51.664;7.626;2023-07-29T14:51:47;1.50;;;1.40;;
2362;SDS011;64265;51.664;7.626;2023-07-29T14:54:13;1.83;;;1.63;;
2362;SDS011;64265;51.664;7.626;2023-07-29T14:56:40;1.73;;;1.10;;
2362;SDS011;64265;51.664;7.626;2023-07-29T14:59:07;2.90;;;1.73;;
2362;SDS011;64265;51.664;7.626;2023-07-29T15:01:34;2.10;;;1.77;;
2362;SDS011;64265;51.664;7.626;2023-07-29T15:04:02;2.00;;;1.70;;
2362;SDS011;64265;51.664;7.626;2023-07-29T15:06:29;4.10;;;1.73;;